Time;durP1;ratioP1;P1;durP2;ratioP2;P2;SDS_P1;SDS_P2;PMS_P1;PMS_P2;Temp;Humidity;BMP_temperature;BMP_pressure;BME280_temperature;BME280_humidity;BME280_pressure;Samples;Min_cycle;Max_cycle;Signal;HPM_P1;HPM_P2
2023/03/14 00:00:16;;;;;;;0.27;0.17;;;9.10;99.90;;;;;;5031076;28;20443;-67
2023/03/14 00:02:43;;;;;;;0.20;0.20;;;9.10;99.90;;;;;;5030425;28;20436;-67
2023/03/14 00:05:10;;;;;;;0.20;0.20;;;9.10;1.00;;;;;;5028815;28;20426;-67
2023/03/14 00:07:40;;;;;;;0.10;0.10;;;9.20;99.90;;;;;;5030513;28;20435;-67
2023/03/14 00:10:11;;;;;;;0.10;0.10;;;9.20;99.90;;;;;;5029056;28;20430;-67
2023/03/14 00:12:38;;;;;;;0.20;0.20;;;9.30;99.90;;;;;;5031023;28;20426;-67
2023/03/14 00:15:06;;;;;;;0.10;0.10;;;9.30;99.90;;;;;;5029025;28;20431;-67
2023/03/14 00:17:35;;;;;;;0.55;0.25;;;9.20;99.90;;;;;;5030719;28;20859;-67
2023/03/14 00:20:07;;;;;;;0.30;0.30;;;9.20;99.90;;;;;;5028323;28;20422;-67
2023/03/14 00:22:35;;;;;;;0.20;0.20;;;9.20;99.90;;;;;;5030208;28;20427;-67
2023/03/14 00:25:06;;;;;;;0.20;0.20;;;9.20;99.90;;;;;;5030086;28;20524;-67
2023/03/14 00:27:33;;;;;;;3.50;0.30;;;9.20;99.90;;;;;;5030797;28;20431;-67
2023/03/14 00:30:01;;;;;;;0.30;0.30;;;9.20;99.90;;;;;;5030394;28;20521;-67
2023/03/14 00:32:27;;;;;;;1.10;0.50;;;9.20;99.90;;;;;;5028207;28;20462;-67
2023/03/14 00:34:54;;;;;;;0.10;0.10;;;9.30;99.90;;;;;;5029700;28;20481;-67
2023/03/14 00:37:21;;;;;;;0.10;0.10;;;9.40;99.90;;;;;;5028813;28;20426;-67
2023/03/14 00:39:51;;;;;;;0.15;0.15;;;9.40;99.90;;;;;;5028184;28;20427;-67
2023/03/14 00:42:21;;;;;;;0.13;0.13;;;9.50;99.90;;;;;;5029729;28;20433;-67
2023/03/14 00:44:55;;;;;;;3.20;0.30;;;9.50;99.90;;;;;;5029605;28;20437;-67
2023/03/14 00:47:22;;;;;;;0.10;0.10;;;9.50;99.90;;;;;;5028577;28;20439;-67
2023/03/14 00:49:48;;;;;;;0.40;0.40;;;9.40;99.90;;;;;;5026856;28;20458;-67
2023/03/14 00:52:17;;;;;;;0.20;0.20;;;9.40;99.90;;;;;;5029640;28;20431;-67
2023/03/14 00:54:44;;;;;;;0.20;0.20;;;9.40;99.90;;;;;;5027350;28;20426;-67
2023/03/14 00:57:11;;;;;;;0.30;0.30;;;9.30;99.90;;;;;;5029160;28;20910;-67
2023/03/14 00:59:37;;;;;;;0.30;0.30;;;9.20;99.90;;;;;;5027342;28;20518;-68
2023/03/14 01:02:04;;;;;;;0.10;0.10;;;9.10;99.90;;;;;;5029097;28;20430;-67
2023/03/14 01:04:31;;;;;;;0.17;0.17;;;9.20;99.90;;;;;;5015183;28;20439;-67
2023/03/14 01:06:58;;;;;;;0.50;0.20;;;9.20;99.90;;;;;;5010086;28;20463;-67
2023/03/14 01:09:24;;;;;;;3.38;0.28;;;9.20;99.90;;;;;;5023367;28;20438;-67
2023/03/14 01:11:51;;;;;;;0.80;0.20;;;9.20;99.90;;;;;;5029567;28;20431;-66
2023/03/14 01:14:18;;;;;;;0.10;0.10;;;9.30;99.90;;;;;;5028683;28;21076;-66
2023/03/14 01:16:45;;;;;;;0.10;0.10;;;9.30;99.90;;;;;;5029194;28;20513;-66
2023/03/14 01:19:11;;;;;;;0.30;0.30;;;9.20;99.90;;;;;;5029786;28;20438;-66
2023/03/14 01:21:38;;;;;;;0.25;0.22;;;9.20;99.90;;;;;;5029397;28;20779;-66
2023/03/14 01:24:06;;;;;;;0.30;0.20;;;9.20;99.90;;;;;;5027641;28;20525;-66
2023/03/14 01:26:34;;;;;;;0.45;0.40;;;9.10;99.90;;;;;;5029355;28;20789;-66
2023/03/14 01:29:01;;;;;;;0.10;0.10;;;9.10;99.90;;;;;;5029288;28;20484;-66
2023/03/14 01:31:28;;;;;;;0.45;0.22;;;9.10;99.90;;;;;;5029318;28;20435;-66
2023/03/14 01:33:55;;;;;;;0.20;0.20;;;9.10;99.90;;;;;;5029223;28;20462;-66
2023/03/14 01:36:24;;;;;;;0.80;0.40;;;9.10;99.90;;;;;;5027932;28;21128;-66
2023/03/14 01:38:51;;;;;;;0.30;0.30;;;9.10;99.90;;;;;;5022367;28;20427;-66
2023/03/14 01:41:24;;;;;;;0.13;0.13;;;9.20;99.90;;;;;;5021904;28;20434;-66
2023/03/14 01:43:51;;;;;;;0.10;0.10;;;9.20;99.90;;;;;;5027170;28;20435;-66
2023/03/14 01:46:26;;;;;;;0.10;0.10;;;9.20;99.90;;;;;;5027936;28;20478;-67
2023/03/14 01:48:58;;;;;;;0.13;0.13;;;9.10;99.90;;;;;;5029413;28;20434;-66
2023/03/14 01:51:51;;;;;;;0.40;0.32;;;9.10;99.90;;;;;;5027788;28;20433;-65
2023/03/14 01:54:40;;;;;;;0.20;0.20;;;9.20;99.90;;;;;;5026302;28;20482;-66
2023/03/14 01:57:16;;;;;;;0.40;0.40;;;9.20;99.90;;;;;;5029623;28;20463;-66
2023/03/14 01:59:50;;;;;;;0.30;0.30;;;9.20;99.90;;;;;;5026046;28;20437;-66
2023/03/14 02:02:17;;;;;;;2.30;0.50;;;9.30;99.90;;;;;;5028523;28;20430;-66
2023/03/14 02:04:45;;;;;;;0.10;0.10;;;9.30;99.90;;;;;;5026116;28;20427;-66
2023/03/14 02:07:33;;;;;;;0.25;0.25;;;9.30;99.90;;;;;;5029313;28;20465;-66
2023/03/14 02:10:03;;;;;;;2.90;0.20;;;9.30;99.90;;;;;;5029141;28;20443;-66
2023/03/14 02:12:31;;;;;;;0.65;0.20;;;9.30;99.90;;;;;;5027280;28;20427;-66
2023/03/14 02:14:58;;;;;;;0.20;0.20;;;9.40;99.90;;;;;;5028819;28;20433;-66
2023/03/14 02:17:25;;;;;;;1.40;0.43;;;9.40;99.90;;;;;;5027669;28;20457;-66
2023/03/14 02:20:14;;;;;;;0.50;0.50;;;9.40;99.90;;;;;;5028965;28;20946;-66
2023/03/14 02:22:43;;;;;;;0.10;0.10;;;9.50;99.90;;;;;;5028682;28;20438;-66
2023/03/14 02:25:28;;;;;;;0.70;0.52;;;9.40;99.90;;;;;;5028583;28;20553;-66
2023/03/14 02:27:55;;;;;;;0.30;0.30;;;9.30;99.90;;;;;;5031319;28;20501;-66
2023/03/14 02:30:25;;;;;;;0.20;0.20;;;9.30;99.90;;;;;;5032547;28;20444;-66
2023/03/14 02:32:59;;;;;;;0.30;0.30;;;9.30;99.90;;;;;;5031017;28;20514;-66
2023/03/14 02:35:48;;;;;;;0.40;0.30;;;9.30;99.90;;;;;;5032379;28;20423;-67
2023/03/14 02:38:27;;;;;;;0.15;0.15;;;9.20;99.90;;;;;;5031953;28;20458;-66
2023/03/14 02:40:54;;;;;;;1.70;0.28;;;9.20;99.90;;;;;;5030841;28;20435;-66
2023/03/14 02:43:21;;;;;;;0.20;0.20;;;9.10;99.90;;;;;;5032194;28;20426;-66
2023/03/14 02:45:50;;;;;;;7.70;0.30;;;9.20;99.90;;;;;;5029975;28;20462;-66
2023/03/14 02:48:21;;;;;;;0.13;0.13;;;9.10;99.90;;;;;;5032359;28;20797;-66
2023/03/14 02:50:50;;;;;;;1.50;0.45;;;9.10;99.90;;;;;;5031563;28;21144;-66
2023/03/14 02:53:27;;;;;;;0.30;0.30;;;9.20;99.90;;;;;;5030476;28;20431;-66
2023/03/14 02:55:57;;;;;;;0.10;0.10;;;9.30;99.90;;;;;;5031502;28;20423;-66
2023/03/14 02:58:24;;;;;;;0.20;0.20;;;9.30;99.90;;;;;;5030590;28;20435;-66
2023/03/14 03:00:54;;;;;;;0.90;0.50;;;9.30;99.90;;;;;;5032441;28;20431;-66
2023/03/14 03:03:21;;;;;;;0.70;0.20;;;9.20;99.90;;;;;;5030222;28;20427;-66
2023/03/14 03:05:52;;;;;;;0.28;0.28;;;9.20;99.90;;;;;;5031687;28;20454;-70
2023/03/14 03:08:21;;;;;;;2.10;0.20;;;9.20;99.90;;;;;;5031638;28;20430;-66
2023/03/14 03:10:48;;;;;;;0.25;0.20;;;9.30;99.90;;;;;;5032092;28;20438;-66
2023/03/14 03:13:16;;;;;;;0.30;0.30;;;9.20;99.90;;;;;;5031562;28;20466;-66
2023/03/14 03:15:43;;;;;;;0.30;0.30;;;9.20;99.90;;;;;;5029981;28;20505;-66
2023/03/14 03:18:10;;;;;;;0.10;0.10;;;9.20;99.90;;;;;;5031628;28;20588;-66
2023/03/14 03:20:37;;;;;;;0.40;0.40;;;9.10;99.90;;;;;;5031732;28;20437;-66
2023/03/14 03:23:09;;;;;;;0.40;0.25;;;9.10;99.90;;;;;;5031488;28;20972;-67
2023/03/14 03:25:36;;;;;;;0.45;0.45;;;9.00;99.90;;;;;;5030026;28;20529;-67
2023/03/14 03:28:07;;;;;;;3.40;0.20;;;8.90;99.90;;;;;;5031544;28;20782;-67
2023/03/14 03:30:38;;;;;;;0.10;0.10;;;8.90;99.90;;;;;;5031561;28;20493;-67
2023/03/14 03:33:08;;;;;;;2.10;0.20;;;8.90;99.90;;;;;;5030372;28;20770;-67
2023/03/14 03:35:45;;;;;;;0.20;0.20;;;8.90;99.90;;;;;;5030635;28;20431;-67
2023/03/14 03:38:13;;;;;;;0.10;0.10;;;8.90;99.90;;;;;;5029111;28;20431;-67
2023/03/14 03:40:40;;;;;;;0.08;0.08;;;8.90;99.90;;;;;;5031266;28;20434;-67
2023/03/14 03:43:06;;;;;;;0.13;0.13;;;8.80;99.90;;;;;;5031223;28;21081;-67
2023/03/14 03:45:34;;;;;;;0.25;0.25;;;8.90;99.90;;;;;;5030767;28;20438;-67
2023/03/14 03:48:00;;;;;;;0.38;0.38;;;8.90;99.90;;;;;;5029538;28;20945;-66
2023/03/14 03:50:27;;;;;;;0.25;0.10;;;8.90;99.90;;;;;;5030897;28;20439;-66
2023/03/14 03:52:54;;;;;;;0.10;0.10;;;9.00;99.90;;;;;;5031222;28;20459;-66
2023/03/14 03:55:25;;;;;;;1.50;0.20;;;9.00;99.90;;;;;;5028916;28;20435;-67
2023/03/14 03:57:54;;;;;;;0.10;0.10;;;9.00;99.90;;;;;;5031175;28;20431;-67
2023/03/14 04:00:24;;;;;;;0.20;0.20;;;9.10;99.90;;;;;;5029680;28;21001;-66
2023/03/14 04:02:51;;;;;;;0.70;0.30;;;9.10;99.90;;;;;;5029174;28;20435;-67
2023/03/14 04:05:18;;;;;;;0.30;0.20;;;9.10;99.90;;;;;;5030476;28;20435;-66
2023/03/14 04:07:47;;;;;;;0.30;0.30;;;9.10;99.90;;;;;;5027925;28;20478;-66
2023/03/14 04:10:16;;;;;;;0.93;0.25;;;9.20;99.90;;;;;;5030667;28;20431;-66
2023/03/14 04:12:43;;;;;;;0.53;0.20;;;9.10;99.90;;;;;;5030868;28;20919;-66
2023/03/14 04:15:10;;;;;;;0.60;0.28;;;9.10;99.90;;;;;;5030145;28;21034;-66
2023/03/14 04:17:37;;;;;;;0.30;0.30;;;9.20;99.90;;;;;;5030712;28;20466;-66
2023/03/14 04:20:10;;;;;;;0.80;0.40;;;9.20;99.90;;;;;;5028856;28;20469;-66
2023/03/14 04:22:38;;;;;;;2.70;1.20;;;9.20;99.90;;;;;;5030202;28;20484;-66
2023/03/14 04:25:11;;;;;;;0.17;0.17;;;9.10;99.90;;;;;;5030278;28;20523;-66
2023/03/14 04:27:38;;;;;;;0.60;0.20;;;9.20;99.90;;;;;;5028371;28;20471;-66
2023/03/14 04:30:05;;;;;;;1.30;0.80;;;9.20;99.90;;;;;;5030338;28;20477;-67
2023/03/14 04:32:32;;;;;;;0.30;0.30;;;9.20;99.90;;;;;;5030405;28;20514;-66
2023/03/14 04:34:58;;;;;;;0.50;0.30;;;9.30;99.90;;;;;;5027898;28;20431;-66
2023/03/14 04:37:25;;;;;;;2.00;0.20;;;9.30;99.90;;;;;;5030085;28;20774;-66
2023/03/14 04:39:58;;;;;;;0.40;0.40;;;9.30;99.90;;;;;;5028524;28;20458;-67
2023/03/14 04:42:25;;;;;;;0.90;0.30;;;9.30;99.90;;;;;;5029955;28;20430;-66
2023/03/14 04:44:51;;;;;;;1.50;0.20;;;9.40;99.90;;;;;;5027964;28;20504;-66
2023/03/14 04:47:21;;;;;;;0.30;0.22;;;9.30;99.90;;;;;;5030331;28;20443;-66
2023/03/14 04:49:48;;;;;;;0.10;0.10;;;9.40;99.90;;;;;;5030041;28;20441;-66
2023/03/14 04:52:15;;;;;;;0.20;0.20;;;9.30;99.90;;;;;;5028570;28;20505;-67
2023/03/14 04:54:41;;;;;;;0.17;0.17;;;9.30;99.90;;;;;;5028730;28;20504;-66
2023/03/14 04:57:08;;;;;;;0.10;0.10;;;9.30;99.90;;;;;;5030226;28;20431;-66
2023/03/14 04:59:35;;;;;;;0.90;0.30;;;9.30;99.90;;;;;;5023545;28;20435;-66
2023/03/14 05:02:02;;;;;;;1.40;0.47;;;9.30;99.90;;;;;;5029834;28;21035;-66
2023/03/14 05:04:32;;;;;;;0.50;0.40;;;9.30;99.90;;;;;;5029507;28;20528;-66
2023/03/14 05:07:00;;;;;;;0.47;0.28;;;9.20;99.90;;;;;;5029904;28;20427;-66
2023/03/14 05:09:27;;;;;;;0.60;0.50;;;9.30;99.90;;;;;;5027521;28;20801;-66
2023/03/14 05:11:53;;;;;;;0.85;0.25;;;9.20;99.90;;;;;;5030097;28;20431;-66
2023/03/14 05:14:20;;;;;;;1.60;0.20;;;9.20;99.90;;;;;;5025257;28;20460;-66
2023/03/14 05:16:47;;;;;;;0.20;0.20;;;9.20;99.90;;;;;;5029851;28;20431;-66
2023/03/14 05:19:14;;;;;;;0.43;0.17;;;9.20;99.90;;;;;;5029164;28;20525;-66
2023/03/14 05:21:40;;;;;;;0.10;0.10;;;9.20;99.90;;;;;;5028610;28;20442;-66
2023/03/14 05:24:07;;;;;;;0.80;0.28;;;9.30;99.90;;;;;;5028939;28;20435;-66
2023/03/14 05:26:34;;;;;;;0.30;0.30;;;9.40;99.90;;;;;;5027337;28;20462;-66
2023/03/14 05:29:00;;;;;;;0.40;0.40;;;9.40;99.90;;;;;;5029604;28;20537;-66
2023/03/14 05:31:27;;;;;;;0.75;0.30;;;9.40;99.90;;;;;;5027512;28;20590;-66
2023/03/14 05:33:54;;;;;;;1.00;0.10;;;9.40;99.90;;;;;;5027199;28;20492;-66
2023/03/14 05:36:21;;;;;;;0.20;0.20;;;9.50;99.90;;;;;;5028420;28;20759;-66
2023/03/14 05:38:47;;;;;;;0.60;0.40;;;9.50;99.90;;;;;;5026931;28;20427;-66
2023/03/14 05:41:14;;;;;;;0.10;0.10;;;9.50;99.90;;;;;;5029125;28;20965;-66
2023/03/14 05:43:41;;;;;;;0.20;0.20;;;9.50;99.90;;;;;;5028821;28;20517;-66
2023/03/14 05:46:07;;;;;;;0.20;0.20;;;9.50;99.90;;;;;;5027702;28;20488;-66
2023/03/14 05:48:34;;;;;;;0.50;0.50;;;9.60;99.90;;;;;;5029187;28;20429;-66
2023/03/14 05:51:01;;;;;;;0.17;0.17;;;9.50;99.90;;;;;;5026879;28;20430;-66
2023/03/14 05:53:31;;;;;;;0.38;0.38;;;9.50;99.90;;;;;;5029182;28;20438;-66
2023/03/14 05:55:58;;;;;;;0.30;0.30;;;9.50;99.90;;;;;;5026597;28;20927;-66
2023/03/14 05:58:25;;;;;;;0.70;0.20;;;9.50;99.90;;;;;;5013481;28;20433;-66
2023/03/14 06:00:51;;;;;;;0.43;0.43;;;9.50;99.90;;;;;;5029714;28;20430;-66
2023/03/14 06:03:25;;;;;;;0.10;0.10;;;9.50;99.90;;;;;;5032860;28;20837;-66
2023/03/14 06:05:52;;;;;;;1.70;0.30;;;9.50;99.90;;;;;;5032234;28;20438;-66
2023/03/14 06:08:24;;;;;;;0.40;0.30;;;9.60;99.90;;;;;;5033450;28;20437;-66
2023/03/14 06:10:52;;;;;;;0.30;0.30;;;9.60;99.90;;;;;;5032948;28;20438;-66
2023/03/14 06:13:19;;;;;;;1.10;0.40;;;9.50;99.90;;;;;;5031078;28;20944;-66
2023/03/14 06:15:46;;;;;;;0.60;0.20;;;9.50;99.90;;;;;;5032135;28;20465;-66
2023/03/14 06:18:14;;;;;;;0.10;0.10;;;9.50;99.90;;;;;;5030519;28;20465;-66
2023/03/14 06:20:43;;;;;;;1.90;0.40;;;9.50;99.90;;;;;;5033070;28;20477;-66
2023/03/14 06:23:10;;;;;;;0.10;0.10;;;9.50;99.90;;;;;;5032861;28;20481;-65
2023/03/14 06:25:39;;;;;;;0.20;0.20;;;9.50;99.90;;;;;;5029892;28;20435;-66
2023/03/14 06:28:06;;;;;;;0.10;0.10;;;9.50;99.90;;;;;;5032553;28;21219;-66
2023/03/14 06:30:33;;;;;;;0.10;0.10;;;9.50;99.90;;;;;;5032341;28;20792;-65
2023/03/14 06:32:59;;;;;;;0.20;0.20;;;9.50;99.90;;;;;;5030822;28;20454;-65
2023/03/14 06:35:26;;;;;;;0.30;0.30;;;9.60;99.90;;;;;;5032102;28;20466;-66
2023/03/14 06:37:53;;;;;;;0.20;0.20;;;9.60;99.90;;;;;;5032177;28;20427;-66
2023/03/14 06:40:20;;;;;;;0.55;0.55;;;9.70;99.90;;;;;;5023641;28;20471;-66
2023/03/14 06:42:47;;;;;;;0.10;0.10;;;9.70;99.90;;;;;;5012113;28;20440;-65
2023/03/14 06:45:14;;;;;;;0.30;0.30;;;9.70;99.90;;;;;;5011898;28;20486;-66
2023/03/14 06:47:42;;;;;;;0.10;0.10;;;9.70;99.90;;;;;;5028254;28;20513;-66
2023/03/14 06:50:12;;;;;;;0.10;0.10;;;9.70;99.90;;;;;;5032221;28;20434;-65
2023/03/14 06:52:47;;;;;;;0.50;0.30;;;9.80;99.90;;;;;;5030855;28;20898;-66
2023/03/14 06:55:15;;;;;;;1.10;0.50;;;9.80;99.90;;;;;;5031490;28;20427;-66
2023/03/14 06:57:43;;;;;;;0.10;0.10;;;9.80;99.90;;;;;;5029940;28;20853;-66
2023/03/14 07:00:12;;;;;;;0.13;0.13;;;9.80;99.90;;;;;;5032089;28;20426;-65
2023/03/14 07:02:40;;;;;;;0.40;0.30;;;9.90;99.90;;;;;;5030480;28;20427;-66
2023/03/14 07:05:10;;;;;;;0.30;0.25;;;9.90;99.90;;;;;;5012158;28;20497;-66
2023/03/14 07:07:37;;;;;;;1.10;0.30;;;9.90;99.90;;;;;;5012154;28;20585;-66
2023/03/14 07:10:17;;;;;;;0.10;0.10;;;9.90;99.90;;;;;;5010640;28;20952;-66
2023/03/14 07:12:44;;;;;;;0.20;0.20;;;10.00;99.90;;;;;;5011207;28;20439;-66
2023/03/14 07:15:11;;;;;;;0.35;0.28;;;10.00;99.90;;;;;;5025634;28;20427;-66
2023/03/14 07:17:48;;;;;;;0.30;0.30;;;10.10;99.90;;;;;;5031362;28;20509;-66
2023/03/14 07:20:15;;;;;;;0.10;0.10;;;10.10;99.90;;;;;;5029698;28;20430;-65
2023/03/14 07:22:49;;;;;;;0.07;0.07;;;10.10;99.90;;;;;;5031331;28;20439;-66
2023/03/14 07:25:16;;;;;;;0.30;0.30;;;10.00;99.90;;;;;;5028474;28;20430;-66
2023/03/14 07:27:44;;;;;;;0.10;0.10;;;10.00;99.90;;;;;;5031257;28;20524;-66
2023/03/14 07:30:14;;;;;;;0.20;0.20;;;10.00;99.90;;;;;;5031366;28;20435;-65
2023/03/14 07:32:41;;;;;;;0.10;0.10;;;10.00;99.90;;;;;;5029043;28;20446;-66
2023/03/14 07:35:08;;;;;;;0.40;0.40;;;10.10;99.90;;;;;;5029839;28;20773;-66
2023/03/14 07:37:35;;;;;;;0.10;0.10;;;10.10;99.90;;;;;;5030396;28;20513;-66
2023/03/14 07:40:05;;;;;;;3.92;0.50;;;10.10;99.90;;;;;;5030060;28;20435;-66
2023/03/14 07:42:37;;;;;;;0.20;0.20;;;10.10;99.90;;;;;;5031184;28;20933;-66
2023/03/14 07:45:05;;;;;;;0.10;0.10;;;10.20;99.90;;;;;;5030463;28;20453;-66
2023/03/14 07:47:33;;;;;;;0.22;0.20;;;10.20;99.90;;;;;;5029892;28;20523;-65
2023/03/14 07:50:00;;;;;;;0.85;0.32;;;10.30;99.90;;;;;;5030046;28;20488;-66
2023/03/14 07:52:27;;;;;;;0.30;0.30;;;10.40;99.90;;;;;;5030902;28;21120;-66
2023/03/14 07:54:56;;;;;;;0.10;0.10;;;10.30;99.90;;;;;;5026993;28;20422;-66
2023/03/14 07:57:24;;;;;;;0.10;0.10;;;10.30;99.90;;;;;;5030812;28;20471;-66
2023/03/14 07:59:50;;;;;;;0.20;0.20;;;10.30;99.90;;;;;;5030913;28;21044;-66
2023/03/14 08:02:20;;;;;;;0.50;0.50;;;10.30;99.90;;;;;;5030765;28;20426;-66
2023/03/14 08:04:46;;;;;;;0.20;0.20;;;10.40;99.90;;;;;;5028408;28;20426;-66
2023/03/14 08:07:16;;;;;;;0.70;0.30;;;10.40;99.90;;;;;;5030877;28;20427;-65
2023/03/14 08:09:45;;;;;;;0.70;0.17;;;10.40;99.90;;;;;;5030336;28;20485;-65
2023/03/14 08:12:15;;;;;;;0.13;0.13;;;10.40;99.90;;;;;;5030425;28;20431;-65
2023/03/14 08:14:42;;;;;;;0.10;0.10;;;10.60;99.90;;;;;;5028718;28;20516;-65
2023/03/14 08:17:09;;;;;;;0.40;0.20;;;10.70;99.90;;;;;;5030164;28;21040;-65
2023/03/14 08:19:40;;;;;;;0.35;0.35;;;10.90;99.90;;;;;;5029299;28;20466;-65
2023/03/14 08:22:07;;;;;;;0.30;0.30;;;11.20;99.90;;;;;;5010781;28;20440;-65
2023/03/14 08:24:34;;;;;;;0.20;0.20;;;11.40;99.90;;;;;;5009921;28;20436;-65
2023/03/14 08:27:00;;;;;;;0.20;0.20;;;11.40;99.90;;;;;;5010761;28;20527;-65
2023/03/14 08:29:27;;;;;;;0.20;0.20;;;11.30;99.90;;;;;;5010336;28;20780;-65
2023/03/14 08:31:56;;;;;;;0.30;0.30;;;11.00;99.90;;;;;;5010576;28;20436;-65
2023/03/14 08:34:23;;;;;;;0.10;0.10;;;11.00;99.90;;;;;;5010001;28;20438;-65
2023/03/14 08:36:50;;;;;;;1.05;0.15;;;11.20;99.90;;;;;;5022005;28;20477;-65
2023/03/14 08:39:16;;;;;;;1.58;0.40;;;11.50;99.90;;;;;;5029900;28;20427;-65
2023/03/14 08:41:44;;;;;;;0.13;0.13;;;11.70;99.90;;;;;;5030394;28;20888;-65
2023/03/14 08:44:11;;;;;;;0.20;0.20;;;11.90;99.90;;;;;;5029223;28;20496;-65
2023/03/14 08:46:38;;;;;;;3.65;0.30;;;12.10;99.90;;;;;;5029749;28;20430;-65
2023/03/14 08:49:05;;;;;;;0.10;0.10;;;12.00;99.90;;;;;;5029445;28;20837;-65
2023/03/14 08:51:31;;;;;;;0.22;0.22;;;12.10;99.90;;;;;;5029265;28;20439;-65
2023/03/14 08:53:58;;;;;;;0.15;0.15;;;12.40;99.90;;;;;;5028358;28;20431;-65
2023/03/14 08:56:25;;;;;;;0.20;0.20;;;12.40;99.90;;;;;;5029722;28;20437;-66
2023/03/14 08:58:51;;;;;;;1.00;0.20;;;12.80;99.90;;;;;;5029770;28;20438;-66
2023/03/14 09:01:19;;;;;;;0.80;0.30;;;13.20;99.90;;;;;;5030070;28;20431;-66
2023/03/14 09:03:47;;;;;;;0.20;0.20;;;13.60;99.90;;;;;;5029456;28;20437;-65
2023/03/14 09:06:17;;;;;;;0.10;0.10;;;13.40;99.90;;;;;;5030060;28;20459;-66
2023/03/14 09:08:46;;;;;;;0.30;0.30;;;13.20;99.90;;;;;;5028159;28;20435;-66
2023/03/14 09:11:13;;;;;;;0.10;0.10;;;13.20;99.90;;;;;;5029300;28;20441;-66
2023/03/14 09:13:40;;;;;;;0.13;0.13;;;13.10;99.90;;;;;;5027827;28;20814;-65
2023/03/14 09:16:08;;;;;;;0.10;0.10;;;12.90;99.90;;;;;;5029386;28;20481;-65
2023/03/14 09:18:36;;;;;;;0.20;0.20;;;12.40;99.90;;;;;;5029895;28;20430;-65
2023/03/14 09:21:02;;;;;;;0.10;0.10;;;12.10;99.90;;;;;;5027718;28;20434;-65
2023/03/14 09:23:29;;;;;;;0.20;0.20;;;12.10;99.90;;;;;;5029483;28;20526;-65
2023/03/14 09:26:00;;;;;;;0.15;0.15;;;12.00;99.90;;;;;;5027167;28;20897;-65
2023/03/14 09:28:30;;;;;;;0.20;0.20;;;12.10;99.90;;;;;;5012146;28;20469;-66
2023/03/14 09:30:57;;;;;;;0.20;0.20;;;12.00;99.90;;;;;;5029578;28;20426;-66
2023/03/14 09:33:27;;;;;;;0.20;0.20;;;12.00;99.90;;;;;;5027765;28;20435;-66
2023/03/14 09:35:53;;;;;;;0.80;0.40;;;11.90;99.90;;;;;;5029641;28;20529;-66
2023/03/14 09:38:20;;;;;;;0.15;0.15;;;12.00;99.90;;;;;;5032146;28;20533;-66
2023/03/14 09:40:48;;;;;;;0.10;0.10;;;11.90;99.90;;;;;;5033611;28;20434;-65
2023/03/14 09:43:16;;;;;;;0.30;0.30;;;11.80;99.90;;;;;;5033356;28;20435;-66
2023/03/14 09:45:45;;;;;;;0.30;0.30;;;11.70;99.90;;;;;;5033022;28;20431;-66
2023/03/14 09:48:21;;;;;;;0.30;0.30;;;11.70;99.90;;;;;;5033392;28;20462;-66
2023/03/14 09:50:52;;;;;;;0.20;0.20;;;11.90;99.90;;;;;;5033524;28;20434;-66
2023/03/14 09:53:25;;;;;;;0.20;0.20;;;11.90;99.90;;;;;;5032136;28;20457;-66
2023/03/14 09:55:55;;;;;;;0.20;0.20;;;12.00;99.90;;;;;;5032290;28;20961;-66
2023/03/14 09:58:23;;;;;;;0.20;0.20;;;12.10;99.90;;;;;;5033200;28;20458;-66
2023/03/14 10:00:57;;;;;;;0.10;0.10;;;11.90;99.90;;;;;;5031184;28;20438;-66
2023/03/14 10:03:34;;;;;;;0.20;0.20;;;12.00;99.90;;;;;;5032766;28;20959;-66
2023/03/14 10:06:13;;;;;;;0.10;0.10;;;12.00;99.90;;;;;;5032489;28;20426;-66
2023/03/14 10:08:41;;;;;;;0.30;0.30;;;12.10;99.90;;;;;;5030951;28;20434;-66
2023/03/14 10:11:17;;;;;;;0.10;0.10;;;12.20;99.90;;;;;;5033152;28;20439;-66
2023/03/14 10:13:49;;;;;;;0.20;0.20;;;11.90;99.90;;;;;;5031280;28;20964;-65
2023/03/14 10:16:16;;;;;;;0.17;0.17;;;11.80;99.90;;;;;;5030217;28;20453;-66
2023/03/14 10:18:46;;;;;;;0.20;0.20;;;11.70;99.90;;;;;;5032667;28;20435;-66
2023/03/14 10:21:29;;;;;;;0.20;0.20;;;11.50;99.90;;;;;;5030713;28;20431;-66
2023/03/14 10:24:30;;;;;;;0.20;0.20;;;11.40;99.90;;;;;;5030696;28;20434;-66
2023/03/14 10:27:02;;;;;;;0.90;0.22;;;11.40;99.90;;;;;;5031238;28;20449;-66
2023/03/14 10:29:32;;;;;;;0.20;0.20;;;11.40;99.90;;;;;;5030852;28;20459;-66
2023/03/14 10:32:12;;;;;;;0.10;0.10;;;11.30;99.90;;;;;;5031064;28;20488;-66
2023/03/14 10:34:42;;;;;;;0.20;0.20;;;11.30;99.90;;;;;;5032147;28;20890;-66
2023/03/14 10:37:26;;;;;;;0.20;0.20;;;11.30;99.90;;;;;;5032585;28;20438;-66
2023/03/14 10:39:58;;;;;;;0.50;0.25;;;11.40;99.90;;;;;;5031009;28;20453;-66
2023/03/14 10:42:31;;;;;;;0.17;0.17;;;11.30;99.90;;;;;;5032342;28;20437;-66
2023/03/14 10:45:02;;;;;;;0.20;0.20;;;11.30;99.90;;;;;;5031737;28;20438;-66
2023/03/14 10:47:32;;;;;;;0.30;0.30;;;11.30;99.90;;;;;;5030072;28;20435;-66
2023/03/14 10:50:28;;;;;;;0.10;0.10;;;11.20;99.90;;;;;;5032106;28;20435;-66
2023/03/14 10:52:57;;;;;;;0.20;0.20;;;11.30;99.90;;;;;;5030470;28;20534;-66
2023/03/14 10:55:40;;;;;;;0.20;0.20;;;11.40;99.90;;;;;;5032153;28;20573;-66
2023/03/14 10:58:26;;;;;;;0.10;0.10;;;11.40;99.90;;;;;;5030072;28;20422;-66
2023/03/14 11:01:06;;;;;;;0.20;0.20;;;11.60;99.90;;;;;;5030318;28;20514;-66
2023/03/14 11:03:37;;;;;;;0.15;0.15;;;11.70;99.90;;;;;;5031730;28;20427;-66
2023/03/14 11:06:45;;;;;;;0.10;0.10;;;11.70;99.90;;;;;;5031690;28;20440;-66
2023/03/14 11:09:23;;;;;;;0.20;0.20;;;11.70;99.90;;;;;;5031071;28;20794;-66
2023/03/14 11:11:49;;;;;;;0.10;0.10;;;11.70;99.90;;;;;;5031632;28;20906;-66
2023/03/14 11:14:29;;;;;;;0.20;0.20;;;11.70;99.90;;;;;;5031681;28;20434;-66
2023/03/14 11:17:19;;;;;;;0.10;0.10;;;11.80;99.90;;;;;;5029506;28;20474;-66
2023/03/14 11:19:56;;;;;;;0.17;0.17;;;11.70;99.90;;;;;;5031532;28;20434;-66
2023/03/14 11:22:29;;;;;;;0.20;0.20;;;11.60;99.90;;;;;;5030051;28;20430;-66
2023/03/14 11:25:28;;;;;;;0.20;0.20;;;11.70;99.90;;;;;;5031085;28;20442;-66
2023/03/14 11:28:19;;;;;;;0.40;0.10;;;11.70;99.90;;;;;;5031652;28;20441;-66
2023/03/14 11:30:55;;;;;;;0.10;0.10;;;11.70;99.90;;;;;;5031210;28;20489;-66
2023/03/14 11:33:52;;;;;;;0.10;0.10;;;11.60;99.90;;;;;;5029616;28;20956;-66
2023/03/14 11:36:23;;;;;;;0.10;0.10;;;11.70;99.90;;;;;;5026699;28;20497;-66
2023/03/14 11:38:54;;;;;;;0.20;0.20;;;11.70;99.90;;;;;;5028523;28;20424;-66
2023/03/14 11:41:28;;;;;;;0.10;0.10;;;11.80;99.90;;;;;;5028235;28;20999;-66
2023/03/14 11:43:59;;;;;;;0.22;0.22;;;11.80;99.90;;;;;;5028106;28;20431;-67
2023/03/14 11:46:28;;;;;;;0.10;0.10;;;11.90;99.90;;;;;;5028201;28;20942;-66
2023/03/14 11:49:17;;;;;;;0.20;0.20;;;11.80;99.90;;;;;;5026425;28;20418;-66
2023/03/14 11:51:51;;;;;;;0.20;0.20;;;11.80;99.90;;;;;;5028050;28;20431;-67
2023/03/14 11:55:06;;;;;;;0.20;0.20;;;11.60;99.90;;;;;;5027980;28;20433;-66
2023/03/14 11:57:34;;;;;;;0.10;0.10;;;11.20;99.90;;;;;;5006538;28;20504;-66
2023/03/14 12:00:20;;;;;;;0.20;0.20;;;10.90;99.90;;;;;;5027372;28;20434;-66
2023/03/14 12:02:50;;;;;;;0.10;0.10;;;11.00;99.90;;;;;;5028189;28;20426;-65
2023/03/14 12:05:22;;;;;;;0.20;0.20;;;11.10;99.90;;;;;;5025955;28;20443;-66
2023/03/14 12:08:06;;;;;;;0.20;0.20;;;11.30;99.90;;;;;;5027907;28;20898;-66
2023/03/14 12:10:55;;;;;;;0.20;0.20;;;11.40;99.90;;;;;;5028042;28;20450;-65
2023/03/14 12:13:22;;;;;;;0.17;0.17;;;11.40;99.90;;;;;;5020300;28;20447;-66
2023/03/14 12:16:03;;;;;;;0.10;0.10;;;11.30;99.90;;;;;;5010471;28;20994;-65
2023/03/14 12:18:39;;;;;;;0.10;0.10;;;10.80;99.90;;;;;;5010642;28;20467;-65
2023/03/14 12:21:12;;;;;;;0.20;0.20;;;10.60;99.90;;;;;;5022240;28;20458;-65
2023/03/14 12:23:50;;;;;;;0.10;0.10;;;11.00;99.90;;;;;;5030596;28;20437;-66
2023/03/14 12:26:22;;;;;;;0.20;0.20;;;11.40;99.90;;;;;;5030604;28;20438;-65
2023/03/14 12:29:11;;;;;;;0.20;0.20;;;11.60;99.90;;;;;;5030240;28;20431;-65
2023/03/14 12:32:08;;;;;;;0.10;0.10;;;11.70;99.90;;;;;;5030297;28;20431;-65
2023/03/14 12:34:42;;;;;;;0.25;0.25;;;11.60;99.90;;;;;;5029829;28;20423;-65
2023/03/14 12:37:17;;;;;;;0.10;0.10;;;11.60;99.90;;;;;;5028726;28;20426;-65
2023/03/14 12:40:30;;;;;;;0.20;0.20;;;11.70;99.90;;;;;;5028411;28;20922;-66
2023/03/14 12:43:18;;;;;;;0.20;0.20;;;11.60;99.90;;;;;;5027135;28;20928;-65
2023/03/14 12:46:07;;;;;;;0.10;0.10;;;11.50;99.90;;;;;;5010497;28;20431;-65
2023/03/14 12:48:34;;;;;;;0.20;0.20;;;11.40;99.90;;;;;;5027272;28;20443;-65
2023/03/14 12:51:12;;;;;;;0.17;0.17;;;11.40;99.90;;;;;;5025536;28;20435;-65
2023/03/14 12:53:52;;;;;;;0.30;0.30;;;11.40;99.90;;;;;;5026876;28;20453;-65
2023/03/14 12:56:50;;;;;;;0.20;0.20;;;11.40;99.90;;;;;;5025596;28;20510;-66
2023/03/14 12:59:40;;;;;;;0.20;0.20;;;11.40;99.90;;;;;;5002379;28;20423;-66
2023/03/14 13:02:25;;;;;;;0.10;0.10;;;11.40;99.90;;;;;;5026933;28;20525;-66
2023/03/14 13:05:04;;;;;;;0.20;0.20;;;11.20;99.90;;;;;;5026609;28;20441;-65
2023/03/14 13:07:44;;;;;;;0.30;0.30;;;10.70;99.90;;;;;;5026092;28;21060;-66
2023/03/14 13:10:18;;;;;;;0.10;0.10;;;10.40;99.90;;;;;;5026684;28;20485;-65
2023/03/14 13:13:08;;;;;;;0.20;0.20;;;10.20;99.90;;;;;;5026734;28;20534;-65